Historique des mesures à Cassis (13260), France
Quotidien Résumé Janvier 9, 2017 Unités:  US    Métrique   Métrique/US
« Précédent (Jour)
Suivant (Jour) »
Quotidien Hebdomadaire Mensuel Annuel Période au choix
  Maximum: Minimum: Moyenne:
Température: 32 °F 39.2 °F 44.8 °F
Point de rosée: 32 °F 25.5 °F 31.3 °F
Humidité: Humidity % 52 % 56 %
Vitesse du vent: WindSpeedKMH mph 0.0 mph 2.5 mph
Rafales: WindSpeedGustKMH mph - -
Vent:- - SSE
Pression: 0 in 29.9 in -
Précipitations: 0 in    
Historical Graphs
 
 
Mesures pour : Janvier 9, 2017
Heure Temperature Point de rosée Pression Vent Vitesse du vent Rafales Humidité Pluie (par heure) Conditions
32 °F 32 °F 0 in Calm     Humidity % 0 in SoftwareType W/m2
00:11 44.4 °F 33.1 °F 30.1 in Calm     64 % 0 in open2300-1.11 W/m2
01:10 45 °F 33.4 °F 30.1 in Calm     64 % 0 in open2300-1.11 W/m2
02:11 45.7 °F 33.8 °F 30.1 in Calm     63 % 0 in open2300-1.11 W/m2
03:10 45.3 °F 32.7 °F 30.1 in Calm     61 % 0 in open2300-1.11 W/m2
04:11 45.1 °F 32.2 °F 30.2 in Calm   6.1 mph 60 % 0 in open2300-1.11 W/m2
05:10 46 °F 32.9 °F 30.1 in Calm     60 % 0 in open2300-1.11 W/m2
06:11 46 °F 32.9 °F 30.1 in Calm     60 % 0 in open2300-1.11 W/m2
07:10 45.7 °F 32.5 °F 30.1 in Calm     60 % 0 in open2300-1.11 W/m2
08:11 45.1 °F 32.2 °F 30.1 in Calm     60 % 0 in open2300-1.11 W/m2
09:10 45 °F 31.5 °F 30.2 in Calm     59 % 0 in open2300-1.11 W/m2
10:11 46 °F 32.5 °F 30.1 in Calm     59 % 0 in open2300-1.11 W/m2
11:10 47.3 °F 33.3 °F 30.1 in Calm     58 % 0 in open2300-1.11 W/m2
12:12 50.4 °F 35.8 °F 30.1 in Calm     57 % 0 in open2300-1.11 W/m2
13:10 51.4 °F 37 °F 30.1 in Calm     58 % 0 in open2300-1.11 W/m2
14:11 50.2 °F 34.5 °F 30 in WNW 16.3 mph 16.9 mph 55 % 0 in open2300-1.11 W/m2
15:10 49.3 °F 33.3 °F 30 in NNE 6.1 mph 9.7 mph 54 % 0 in open2300-1.11 W/m2
16:11 48.6 °F 32.2 °F 30 in NW 10.8 mph 21.2 mph 53 % 0 in open2300-1.11 W/m2
17:10 46 °F 29.3 °F 30 in NW 12.2 mph 12.2 mph 52 % 0 in open2300-1.11 W/m2
18:11 43.3 °F 27 °F 30 in NNE 8.2 mph 10.1 mph 52 % 0 in open2300-1.11 W/m2
19:10 43 °F 27.3 °F 30 in Calm     54 % 0 in open2300-1.11 W/m2
20:11 41.2 °F 26.1 °F 29.9 in North 8.7 mph 8.7 mph 55 % 0 in open2300-1.11 W/m2
21:10 40.6 °F 25.5 °F 29.9 in Calm   6.1 mph 55 % 0 in open2300-1.11 W/m2
22:11 39.7 °F 25.5 °F 29.9 in Calm   10.8 mph 57 % 0 in open2300-1.11 W/m2
23:10 39.2 °F 25.5 °F 29.9 in Calm   6.4 mph 58 % 0 in open2300-1.11 W/m2
Observations météo à CASSIS
WU-History script by Weather Underground - 1 mb